Terminal Aerodrome Forecast
Issued by NWS

Home | Current Version | Previous Version | Graphics & Text | Print | Product List | Glossary On
Versions: 1 2 3 4 5 6 7 8 9 10 11 12 13 14 15 16 17 18 19 20 21 22
000
FTUS43 KTOP 180500
TAFMHK
TAF
KMHK 180538Z 1806/1906 09004KT 1SM -SN BR OVC006
     FM180800 08004KT 4SM -SN BR OVC006
     FM181200 05004KT 3SM BR BKN006
     FM181800 05002KT 6SM BR OVC015=

USA.gov is the U.S. government's official web portal to all federal, state and local government web resources and services.